Time;durP1;ratioP1;P1;durP2;ratioP2;P2;SDS_P1;SDS_P2;PMS_P1;PMS_P2;Temp;Humidity;BMP_temperature;BMP_pressure;BME280_temperature;BME280_humidity;BME280_pressure;Samples;Min_cycle;Max_cycle;Signal;HPM_P1;HPM_P2
2023/06/20 00:00:47;;;;;;;7.30;5.63;;;22.70;58.50;;;;;;6034241;23;20011;-81
2023/06/20 00:03:12;;;;;;;7.85;5.68;;;22.70;59.10;;;;;;6034571;23;20050;-80
2023/06/20 00:05:38;;;;;;;6.72;6.03;;;22.60;59.00;;;;;;6035068;23;20019;-80
2023/06/20 00:08:04;;;;;;;7.22;6.20;;;22.50;58.40;;;;;;6012102;23;20449;-81
2023/06/20 00:10:29;;;;;;;7.90;6.05;;;22.50;58.40;;;;;;6035981;23;20052;-80
2023/06/20 00:12:55;;;;;;;8.65;5.82;;;22.50;58.20;;;;;;6012042;23;20090;-80
2023/06/20 00:15:25;;;;;;;6.63;5.25;;;22.60;58.70;;;;;;6035929;23;20011;-80
2023/06/20 00:17:51;;;;;;;10.48;5.95;;;22.60;58.20;;;;;;6036234;23;20062;-81
2023/06/20 00:20:17;;;;;;;11.98;8.02;;;22.60;58.50;;;;;;6011901;23;20575;-81
2023/06/20 00:22:43;;;;;;;7.90;7.10;;;22.40;58.40;;;;;;6011530;23;20015;-81
2023/06/20 00:25:09;;;;;;;12.10;6.90;;;22.40;58.80;;;;;;6010727;23;20015;-81
2023/06/20 00:27:34;;;;;;;9.38;7.22;;;22.30;60.00;;;;;;6035098;23;20058;-81
2023/06/20 00:30:00;;;;;;;8.57;7.40;;;22.30;59.20;;;;;;6035454;23;20018;-81
2023/06/20 00:32:26;;;;;;;9.50;6.82;;;22.30;58.50;;;;;;6035092;23;20018;-81
2023/06/20 00:34:51;;;;;;;13.60;8.27;;;22.20;59.70;;;;;;6011575;23;20011;-81
2023/06/20 00:37:17;;;;;;;9.32;6.88;;;22.20;59.40;;;;;;6010847;23;20021;-81
2023/06/20 00:39:43;;;;;;;9.73;6.93;;;22.20;60.70;;;;;;6011749;23;20018;-81
2023/06/20 00:42:23;;;;;;;9.55;7.45;;;22.20;59.70;;;;;;6010456;23;20062;-81
2023/06/20 00:44:51;;;;;;;12.30;7.57;;;22.20;59.90;;;;;;6035225;23;20094;-81
2023/06/20 00:47:17;;;;;;;12.85;7.13;;;22.20;59.50;;;;;;6008689;23;20019;-81
2023/06/20 00:49:47;;;;;;;8.10;6.72;;;22.20;61.20;;;;;;6010766;23;24423;-81
2023/06/20 00:52:17;;;;;;;7.47;6.35;;;22.10;60.90;;;;;;6034805;23;20034;-81
2023/06/20 00:54:44;;;;;;;10.90;6.35;;;22.10;60.10;;;;;;6011303;23;20014;-80
2023/06/20 00:57:11;;;;;;;10.43;6.65;;;22.00;58.70;;;;;;6034215;23;20015;-80
2023/06/20 00:59:37;;;;;;;8.77;6.20;;;22.00;58.70;;;;;;6034622;23;20481;-80
2023/06/20 01:02:03;;;;;;;9.98;6.13;;;21.90;58.60;;;;;;6011393;23;20011;-80
2023/06/20 01:04:29;;;;;;;8.75;5.82;;;21.90;59.30;;;;;;6011270;23;20007;-81
2023/06/20 01:07:12;;;;;;;7.22;5.30;;;22.00;59.50;;;;;;6010764;23;20090;-81
2023/06/20 01:10:14;;;;;;;7.90;6.15;;;21.90;58.30;;;;;;6035616;23;20018;-80
2023/06/20 01:13:17;;;;;;;9.48;6.50;;;21.90;57.40;;;;;;6038261;23;20031;-81
2023/06/20 01:15:52;;;;;;;8.93;6.72;;;21.80;57.80;;;;;;6008656;23;20030;-80
2023/06/20 01:18:26;;;;;;;11.07;6.55;;;21.80;57.60;;;;;;6039895;23;20397;-80
2023/06/20 01:20:56;;;;;;;7.45;6.45;;;21.80;59.00;;;;;;6029281;23;20018;-80
2023/06/20 01:23:30;;;;;;;8.30;6.18;;;21.80;60.20;;;;;;6016225;23;20007;-80
2023/06/20 01:26:07;;;;;;;7.03;5.88;;;21.70;62.10;;;;;;6009193;23;20073;-81
2023/06/20 01:28:43;;;;;;;6.40;5.30;;;21.70;61.30;;;;;;6057360;23;20370;-80
2023/06/20 01:31:11;;;;;;;7.20;4.78;;;21.80;59.20;;;;;;5999961;23;20018;-80
2023/06/20 01:34:14;;;;;;;9.02;5.97;;;21.90;59.10;;;;;;6009067;23;20046;-80
2023/06/20 01:36:41;;;;;;;6.57;4.63;;;21.80;57.30;;;;;;6054990;23;20018;-80
2023/06/20 01:39:08;;;;;;;8.20;5.53;;;21.70;57.70;;;;;;6056037;23;20314;-80
2023/06/20 01:41:36;;;;;;;9.00;6.20;;;21.70;57.80;;;;;;6031948;23;20516;-80
2023/06/20 01:44:02;;;;;;;7.50;6.53;;;21.60;57.20;;;;;;6052514;23;20379;-79
2023/06/20 01:46:27;;;;;;;8.23;6.30;;;21.60;57.60;;;;;;6033441;23;20015;-79
2023/06/20 01:48:53;;;;;;;7.63;6.63;;;21.60;58.70;;;;;;6057720;23;20022;-78
2023/06/20 01:51:18;;;;;;;6.60;5.82;;;21.50;58.30;;;;;;6032097;23;20094;-80
2023/06/20 01:53:45;;;;;;;7.45;4.88;;;21.50;61.20;;;;;;6054770;23;20019;-79
2023/06/20 01:56:11;;;;;;;5.78;5.15;;;21.60;59.70;;;;;;6056195;23;20021;-79
2023/06/20 01:58:37;;;;;;;10.75;6.35;;;21.90;59.40;;;;;;6056261;23;20445;-79
2023/06/20 02:01:02;;;;;;;7.75;6.57;;;21.90;59.10;;;;;;6056620;23;20346;-79
2023/06/20 02:03:28;;;;;;;5.57;4.82;;;21.60;59.60;;;;;;6056330;23;20335;-79
2023/06/20 02:05:56;;;;;;;5.95;5.28;;;21.60;60.60;;;;;;6056462;23;20018;-79
2023/06/20 02:08:26;;;;;;;7.55;5.97;;;21.70;59.40;;;;;;6032395;23;20093;-79
2023/06/20 02:10:51;;;;;;;6.55;5.15;;;21.80;59.40;;;;;;6031226;23;20070;-80
2023/06/20 02:13:18;;;;;;;7.82;5.50;;;21.60;63.40;;;;;;6055113;23;20015;-79
2023/06/20 02:15:44;;;;;;;14.60;6.20;;;21.60;59.90;;;;;;6031971;23;20007;-79
2023/06/20 02:18:09;;;;;;;12.27;6.18;;;21.50;59.30;;;;;;6055946;23;20529;-80
2023/06/20 02:20:35;;;;;;;7.95;5.35;;;21.40;62.00;;;;;;6031856;23;20042;-80
2023/06/20 02:23:01;;;;;;;7.90;6.45;;;21.40;61.70;;;;;;6056046;23;20011;-80
2023/06/20 02:25:31;;;;;;;5.50;4.80;;;21.40;62.00;;;;;;6032152;23;20007;-79
2023/06/20 02:27:57;;;;;;;8.38;5.82;;;21.50;60.20;;;;;;6056550;23;20010;-79
2023/06/20 02:30:24;;;;;;;8.07;6.05;;;21.40;60.30;;;;;;6056773;23;20338;-78
2023/06/20 02:32:50;;;;;;;8.60;6.15;;;21.50;59.90;;;;;;6056993;23;20700;-78
2023/06/20 02:35:15;;;;;;;9.98;6.85;;;21.40;59.60;;;;;;6055670;23;20070;-79
2023/06/20 02:37:41;;;;;;;8.70;5.28;;;21.40;59.50;;;;;;6055839;23;20014;-79
2023/06/20 02:40:08;;;;;;;8.68;6.15;;;21.40;59.10;;;;;;6055564;23;20034;-79
2023/06/20 02:42:39;;;;;;;9.60;6.38;;;21.40;59.30;;;;;;6056447;23;20014;-79
2023/06/20 02:45:05;;;;;;;11.27;5.88;;;21.30;59.60;;;;;;6032821;23;20070;-79
2023/06/20 02:47:33;;;;;;;9.05;5.90;;;21.30;60.10;;;;;;6031188;23;20042;-79
2023/06/20 02:50:16;;;;;;;9.30;6.15;;;21.30;60.70;;;;;;6055273;23;20143;-79
2023/06/20 02:53:00;;;;;;;6.75;5.45;;;21.30;61.80;;;;;;6055191;23;20484;-79
2023/06/20 02:55:35;;;;;;;6.18;4.60;;;21.30;60.90;;;;;;6032217;23;20403;-79
2023/06/20 02:58:02;;;;;;;5.78;4.63;;;21.40;59.70;;;;;;6055466;23;20015;-79
2023/06/20 03:00:28;;;;;;;11.20;5.22;;;21.40;60.10;;;;;;6055495;23;20465;-79
2023/06/20 03:03:06;;;;;;;5.95;5.07;;;21.50;59.40;;;;;;6033319;23;20011;-79
2023/06/20 03:05:35;;;;;;;6.22;5.43;;;21.40;61.10;;;;;;6055415;23;20021;-79
2023/06/20 03:08:01;;;;;;;5.45;4.95;;;21.60;62.50;;;;;;6056033;23;20022;-78
2023/06/20 03:10:26;;;;;;;6.65;4.38;;;21.70;63.20;;;;;;6031318;23;20007;-79
2023/06/20 03:12:52;;;;;;;6.13;5.13;;;21.80;64.00;;;;;;6054984;23;20423;-79
2023/06/20 03:15:17;;;;;;;5.50;4.45;;;21.80;63.20;;;;;;6030802;23;20011;-79
2023/06/20 03:17:43;;;;;;;5.38;4.68;;;21.60;63.50;;;;;;6055476;23;20202;-79
2023/06/20 03:20:09;;;;;;;5.93;4.72;;;21.50;65.20;;;;;;6032123;23;20407;-79
2023/06/20 03:22:35;;;;;;;7.22;4.60;;;21.50;66.80;;;;;;6056160;23;20018;-79
2023/06/20 03:25:01;;;;;;;6.32;4.03;;;21.50;66.70;;;;;;6032289;23;20378;-79
2023/06/20 03:27:26;;;;;;;6.78;4.68;;;21.60;65.80;;;;;;6054994;23;20022;-79
2023/06/20 03:29:52;;;;;;;4.35;3.95;;;21.60;65.70;;;;;;6056468;23;20022;-79
2023/06/20 03:32:17;;;;;;;6.95;4.10;;;21.70;65.10;;;;;;6055262;23;20007;-78
2023/06/20 03:34:44;;;;;;;5.53;3.97;;;21.60;64.50;;;;;;6055635;23;20007;-79
2023/06/20 03:37:10;;;;;;;4.80;3.92;;;21.80;64.20;;;;;;6055274;23;20392;-79
2023/06/20 03:39:36;;;;;;;5.28;4.68;;;21.80;65.20;;;;;;6057443;23;20159;-79
2023/06/20 03:42:01;;;;;;;4.90;4.40;;;21.70;65.50;;;;;;6056948;23;20489;-80
2023/06/20 03:44:27;;;;;;;6.10;3.92;;;21.80;65.00;;;;;;6057948;23;20039;-81
2023/06/20 03:46:52;;;;;;;8.73;4.53;;;21.80;64.60;;;;;;6058195;23;20061;-80
2023/06/20 03:49:18;;;;;;;5.85;4.05;;;21.80;68.10;;;;;;6034004;23;20015;-80
2023/06/20 03:51:43;;;;;;;8.77;3.90;;;21.70;66.40;;;;;;6058117;23;20011;-80
2023/06/20 03:54:09;;;;;;;6.40;4.45;;;21.70;65.90;;;;;;6057409;23;20394;-81
2023/06/20 03:56:35;;;;;;;6.07;4.15;;;21.70;66.80;;;;;;6057340;23;20007;-81
2023/06/20 03:59:00;;;;;;;5.15;3.75;;;21.60;67.30;;;;;;6057842;23;20098;-80
2023/06/20 04:01:26;;;;;;;6.55;3.40;;;21.70;66.50;;;;;;6034538;23;20019;-80
2023/06/20 04:03:53;;;;;;;6.40;4.20;;;21.80;66.10;;;;;;6058457;23;20014;-79
2023/06/20 04:06:19;;;;;;;3.83;3.25;;;21.60;68.10;;;;;;6032908;23;20041;-78
2023/06/20 04:08:45;;;;;;;6.45;4.07;;;21.60;67.00;;;;;;6057254;23;20453;-79
2023/06/20 04:11:10;;;;;;;5.18;3.97;;;21.60;67.70;;;;;;6057466;23;20023;-78
2023/06/20 04:13:36;;;;;;;7.00;4.15;;;21.60;67.00;;;;;;6057547;23;20477;-79
2023/06/20 04:16:02;;;;;;;4.75;4.18;;;21.50;68.00;;;;;;6032622;23;20035;-79
2023/06/20 04:18:27;;;;;;;6.30;4.38;;;21.50;67.00;;;;;;6056916;23;20562;-79
2023/06/20 04:20:53;;;;;;;6.05;4.68;;;21.50;67.40;;;;;;6058395;23;20058;-79
2023/06/20 04:23:18;;;;;;;7.63;4.78;;;21.60;68.50;;;;;;6056549;23;20018;-79
2023/06/20 04:25:44;;;;;;;4.03;3.40;;;21.50;66.60;;;;;;6056116;23;20463;-80
2023/06/20 04:28:10;;;;;;;5.78;4.65;;;21.60;64.90;;;;;;6032539;23;20011;-80
2023/06/20 04:30:36;;;;;;;4.72;4.20;;;21.70;66.30;;;;;;6056567;23;20015;-80
2023/06/20 04:33:01;;;;;;;4.40;4.00;;;21.70;65.60;;;;;;6058470;23;20022;-80
2023/06/20 04:35:27;;;;;;;6.30;4.13;;;21.80;65.70;;;;;;6034865;23;20023;-81
2023/06/20 04:37:53;;;;;;;7.25;4.63;;;21.80;65.70;;;;;;6059419;23;20082;-80
2023/06/20 04:40:19;;;;;;;6.95;4.82;;;21.80;66.10;;;;;;6060742;23;20011;-79
2023/06/20 04:42:45;;;;;;;6.88;5.28;;;21.80;64.20;;;;;;6059141;23;20014;-79
2023/06/20 04:45:11;;;;;;;5.90;3.55;;;21.80;64.50;;;;;;6058896;23;20015;-79
2023/06/20 04:47:36;;;;;;;6.00;5.35;;;21.90;64.50;;;;;;6058002;23;20059;-78
2023/06/20 04:50:03;;;;;;;4.60;3.75;;;21.90;64.60;;;;;;6033865;23;20015;-79
2023/06/20 04:52:32;;;;;;;3.97;3.50;;;22.00;64.40;;;;;;6024252;23;20002;-80
2023/06/20 04:55:03;;;;;;;5.57;4.03;;;22.10;65.00;;;;;;6057650;23;20057;-79
2023/06/20 04:57:32;;;;;;;7.35;4.45;;;22.10;65.00;;;;;;6056638;23;20007;-80
2023/06/20 04:59:58;;;;;;;5.47;3.25;;;22.20;67.10;;;;;;6034506;23;20022;-80
2023/06/20 05:02:24;;;;;;;4.30;3.85;;;22.20;66.40;;;;;;6011754;23;20509;-80
2023/06/20 05:04:49;;;;;;;6.32;4.80;;;22.30;66.70;;;;;;6057883;23;20025;-80
2023/06/20 05:07:15;;;;;;;4.35;3.70;;;22.20;68.60;;;;;;6056837;23;20018;-80
2023/06/20 05:09:41;;;;;;;5.05;3.45;;;22.30;66.30;;;;;;6058384;23;20018;-80
2023/06/20 05:12:06;;;;;;;7.57;3.78;;;22.30;66.10;;;;;;6034067;23;20070;-80
2023/06/20 05:14:32;;;;;;;4.07;3.67;;;22.30;66.40;;;;;;6058618;23;20500;-80
2023/06/20 05:16:58;;;;;;;6.72;4.22;;;22.40;66.60;;;;;;6057265;23;20019;-80
2023/06/20 05:19:23;;;;;;;8.23;4.72;;;22.40;68.20;;;;;;6057989;23;20046;-79
2023/06/20 05:21:49;;;;;;;4.70;3.80;;;22.30;65.30;;;;;;6033392;23;20604;-79
2023/06/20 05:24:14;;;;;;;6.65;4.90;;;22.40;65.90;;;;;;6058009;23;20015;-79
2023/06/20 05:26:40;;;;;;;5.18;4.15;;;22.40;67.90;;;;;;6057945;23;20015;-79
2023/06/20 05:29:06;;;;;;;5.10;4.57;;;22.50;67.50;;;;;;6058378;23;20428;-79
2023/06/20 05:31:31;;;;;;;6.60;5.00;;;22.50;65.10;;;;;;6056019;23;20007;-79
2023/06/20 05:33:57;;;;;;;4.60;4.05;;;22.70;65.40;;;;;;6057021;23;20055;-79
2023/06/20 05:36:23;;;;;;;4.78;3.17;;;22.70;65.50;;;;;;6032984;23;20082;-78
2023/06/20 05:38:48;;;;;;;4.38;3.97;;;22.80;64.60;;;;;;6057869;23;20015;-78
2023/06/20 05:41:15;;;;;;;5.55;4.38;;;22.90;65.80;;;;;;6055656;23;20030;-77
2023/06/20 05:43:40;;;;;;;4.55;3.90;;;23.00;65.50;;;;;;6056267;23;20019;-77
2023/06/20 05:46:06;;;;;;;6.57;3.40;;;23.00;65.50;;;;;;6055372;23;20037;-78
2023/06/20 05:48:32;;;;;;;4.45;3.63;;;23.10;65.00;;;;;;6041054;23;20018;-80
2023/06/20 05:51:00;;;;;;;3.80;3.35;;;23.20;65.60;;;;;;6056151;23;20022;-76
2023/06/20 05:53:26;;;;;;;5.88;3.35;;;23.40;65.30;;;;;;6031465;23;20022;-77
2023/06/20 05:55:52;;;;;;;4.68;3.78;;;23.50;66.30;;;;;;6031110;23;20476;-77
2023/06/20 05:58:21;;;;;;;8.30;3.97;;;23.70;64.30;;;;;;6055245;23;20126;-78
2023/06/20 06:00:47;;;;;;;5.25;4.22;;;23.80;64.40;;;;;;6029988;23;20023;-78
2023/06/20 06:03:15;;;;;;;5.30;3.60;;;24.00;64.20;;;;;;6055380;23;20022;-79
2023/06/20 06:05:41;;;;;;;7.68;4.43;;;24.20;63.30;;;;;;6054277;23;20014;-78
2023/06/20 06:08:06;;;;;;;6.78;3.75;;;24.40;64.30;;;;;;6029363;23;20022;-78
2023/06/20 06:10:32;;;;;;;5.07;3.33;;;24.70;63.70;;;;;;6029705;23;20090;-78
2023/06/20 06:12:58;;;;;;;5.55;3.50;;;24.90;63.50;;;;;;6031912;23;20350;-79
2023/06/20 06:15:24;;;;;;;3.58;3.13;;;25.20;62.10;;;;;;6054618;23;20085;-79
2023/06/20 06:17:49;;;;;;;4.90;3.92;;;25.30;63.30;;;;;;6031139;23;20007;-80
2023/06/20 06:20:19;;;;;;;4.38;3.65;;;25.50;63.10;;;;;;6029670;23;20350;-80
2023/06/20 06:22:48;;;;;;;5.18;3.58;;;25.40;63.40;;;;;;6032909;23;20019;-80
2023/06/20 06:25:13;;;;;;;5.60;3.95;;;25.70;62.50;;;;;;6055908;23;20534;-80
2023/06/20 06:27:39;;;;;;;4.28;3.72;;;26.10;61.80;;;;;;6033287;23;20023;-80
2023/06/20 06:30:05;;;;;;;4.25;3.85;;;26.20;61.80;;;;;;6057837;23;20018;-79
2023/06/20 06:32:33;;;;;;;3.80;3.50;;;26.50;62.20;;;;;;6033917;23;20457;-79
2023/06/20 06:34:59;;;;;;;3.95;3.63;;;26.60;61.50;;;;;;6009518;23;20081;-79
2023/06/20 06:37:26;;;;;;;5.00;3.63;;;26.80;59.90;;;;;;6027660;23;20114;-80
2023/06/20 06:39:54;;;;;;;3.92;3.53;;;26.90;60.50;;;;;;6032671;23;20044;-80
2023/06/20 06:42:20;;;;;;;4.95;3.53;;;27.00;61.00;;;;;;6033280;23;20488;-79
2023/06/20 06:44:45;;;;;;;7.32;4.00;;;27.00;60.00;;;;;;6030191;23;20094;-79
2023/06/20 06:47:11;;;;;;;3.63;3.33;;;26.90;61.40;;;;;;6054489;23;20023;-80
2023/06/20 06:49:36;;;;;;;8.30;4.40;;;27.10;60.20;;;;;;6031656;23;20006;-79
2023/06/20 06:52:02;;;;;;;4.18;3.78;;;27.60;61.10;;;;;;6056159;23;20011;-79
2023/06/20 06:54:28;;;;;;;3.53;3.20;;;28.00;60.60;;;;;;6029023;23;20089;-79
2023/06/20 06:56:53;;;;;;;4.95;3.70;;;28.10;59.20;;;;;;6054736;23;20035;-79
2023/06/20 06:59:19;;;;;;;4.18;3.83;;;28.30;61.00;;;;;;6054328;23;20015;-79
2023/06/20 07:01:45;;;;;;;8.15;4.90;;;28.00;59.60;;;;;;6030358;23;20014;-79
2023/06/20 07:04:10;;;;;;;4.75;3.97;;;28.20;61.10;;;;;;6054456;23;20421;-78
2023/06/20 07:06:36;;;;;;;5.38;4.43;;;28.30;59.20;;;;;;6030801;23;20015;-79
2023/06/20 07:09:01;;;;;;;3.97;3.58;;;28.60;60.10;;;;;;6056462;23;20495;-79
2023/06/20 07:11:27;;;;;;;5.57;4.13;;;28.90;58.70;;;;;;6055342;23;20482;-79
2023/06/20 07:13:53;;;;;;;5.75;4.20;;;29.00;57.70;;;;;;6053108;23;20434;-79
2023/06/20 07:16:18;;;;;;;5.07;4.03;;;29.10;59.40;;;;;;6031111;23;20342;-79
2023/06/20 07:18:44;;;;;;;4.95;3.97;;;29.50;58.40;;;;;;6044507;23;20011;-79
2023/06/20 07:21:10;;;;;;;5.22;3.45;;;29.50;58.00;;;;;;6031696;23;20524;-79
2023/06/20 07:23:35;;;;;;;8.32;4.82;;;29.60;57.80;;;;;;6052793;23;20146;-79
2023/06/20 07:26:01;;;;;;;6.78;4.18;;;30.20;59.00;;;;;;6033006;23;20436;-79
2023/06/20 07:28:28;;;;;;;4.78;3.90;;;30.70;57.30;;;;;;6055794;23;20015;-79
2023/06/20 07:30:54;;;;;;;3.88;3.55;;;30.20;58.40;;;;;;6055674;23;20113;-79
2023/06/20 07:33:19;;;;;;;4.88;4.47;;;30.60;56.40;;;;;;6030257;23;20019;-80
2023/06/20 07:35:46;;;;;;;4.10;3.70;;;31.00;57.60;;;;;;6055181;23;20007;-78
2023/06/20 07:38:11;;;;;;;4.30;3.78;;;31.70;55.70;;;;;;6052565;23;20011;-78
2023/06/20 07:40:40;;;;;;;7.88;5.32;;;30.80;54.80;;;;;;6031928;23;20014;-77
2023/06/20 07:43:06;;;;;;;4.63;4.15;;;31.80;56.00;;;;;;6030961;23;20015;-81
2023/06/20 07:45:34;;;;;;;5.43;3.97;;;32.20;55.20;;;;;;6031963;23;20110;-77
2023/06/20 07:48:00;;;;;;;4.88;4.35;;;32.30;54.60;;;;;;6054653;23;20027;-78
2023/06/20 07:50:26;;;;;;;5.35;4.60;;;32.50;54.00;;;;;;6028343;23;20031;-80
2023/06/20 07:52:52;;;;;;;4.03;3.63;;;32.60;54.80;;;;;;6054067;23;20389;-79
2023/06/20 07:55:17;;;;;;;4.28;3.78;;;32.80;53.80;;;;;;6053648;23;20022;-80
2023/06/20 07:57:43;;;;;;;8.68;4.45;;;32.70;52.50;;;;;;6054625;23;20013;-80
2023/06/20 08:00:11;;;;;;;5.68;3.55;;;33.10;53.20;;;;;;6053899;23;20011;-79
2023/06/20 08:02:36;;;;;;;5.85;4.15;;;33.30;51.70;;;;;;6030944;23;20019;-80
2023/06/20 08:05:04;;;;;;;3.92;3.50;;;33.80;52.40;;;;;;6056520;23;20011;-79
2023/06/20 08:07:31;;;;;;;5.60;3.53;;;33.80;51.90;;;;;;6055015;23;20018;-80
2023/06/20 08:09:56;;;;;;;4.13;3.72;;;33.80;52.10;;;;;;6054705;23;20011;-79
2023/06/20 08:12:22;;;;;;;3.78;3.47;;;33.80;52.60;;;;;;6031289;23;20070;-80
2023/06/20 08:14:51;;;;;;;5.05;4.03;;;33.60;50.80;;;;;;6053698;23;20390;-80
2023/06/20 08:17:17;;;;;;;3.92;3.63;;;33.50;53.00;;;;;;6054472;23;20030;-80
2023/06/20 08:19:42;;;;;;;4.65;3.50;;;33.90;51.40;;;;;;6030062;23;20532;-80
2023/06/20 08:22:08;;;;;;;5.30;3.63;;;34.40;51.30;;;;;;6030977;23;20019;-80
2023/06/20 08:24:33;;;;;;;4.25;3.85;;;34.20;50.70;;;;;;6057400;23;20007;-80
2023/06/20 08:26:59;;;;;;;4.30;3.90;;;34.50;51.20;;;;;;6056318;23;20023;-80
2023/06/20 08:29:24;;;;;;;3.75;3.40;;;35.30;50.10;;;;;;6055369;23;20023;-79
2023/06/20 08:31:50;;;;;;;3.95;3.58;;;35.40;49.30;;;;;;6048054;23;20090;-80
2023/06/20 08:34:15;;;;;;;4.25;3.85;;;35.40;49.70;;;;;;6032801;23;20015;-79
2023/06/20 08:36:43;;;;;;;4.40;4.00;;;35.50;49.80;;;;;;6056183;23;20461;-79
2023/06/20 08:39:08;;;;;;;5.40;3.88;;;36.10;48.50;;;;;;6033099;23;20476;-79
2023/06/20 08:41:34;;;;;;;4.75;3.42;;;36.40;46.90;;;;;;6033261;23;20010;-79
2023/06/20 08:44:00;;;;;;;3.42;2.65;;;36.40;47.50;;;;;;6032476;23;20019;-79
2023/06/20 08:46:25;;;;;;;3.80;3.35;;;36.10;47.80;;;;;;6055445;23;20018;-79
2023/06/20 08:48:51;;;;;;;5.78;3.97;;;35.90;48.40;;;;;;6054834;23;20067;-79
2023/06/20 08:51:17;;;;;;;3.95;3.20;;;36.40;47.80;;;;;;6031697;23;20093;-79
2023/06/20 08:53:46;;;;;;;3.25;2.95;;;36.40;47.90;;;;;;6032726;23;20500;-80
2023/06/20 08:56:13;;;;;;;4.93;3.00;;;36.30;47.30;;;;;;6055873;23;20015;-80
2023/06/20 08:58:38;;;;;;;4.60;2.97;;;36.10;48.20;;;;;;6023296;23;20037;-80
2023/06/20 09:01:07;;;;;;;3.85;3.55;;;36.10;47.10;;;;;;5994098;23;20509;-79
2023/06/20 09:03:33;;;;;;;4.82;2.97;;;36.70;47.60;;;;;;6057949;23;20018;-80
2023/06/20 09:05:58;;;;;;;3.35;3.05;;;37.30;46.30;;;;;;6032471;23;20027;-80
2023/06/20 09:08:24;;;;;;;3.38;3.17;;;37.10;46.70;;;;;;6032490;23;20046;-80
2023/06/20 09:11:04;;;;;;;3.50;3.20;;;37.70;45.20;;;;;;6056045;23;20011;-80
2023/06/20 09:13:30;;;;;;;4.68;3.28;;;37.30;44.60;;;;;;6055311;23;20022;-80
2023/06/20 09:16:05;;;;;;;3.30;3.00;;;37.20;46.90;;;;;;6054953;23;20285;-81
2023/06/20 09:18:33;;;;;;;3.80;3.50;;;37.30;46.10;;;;;;6030464;23;20524;-80
2023/06/20 09:20:58;;;;;;;3.00;2.80;;;37.20;46.20;;;;;;6047208;23;20476;-81
2023/06/20 09:23:30;;;;;;;3.50;3.20;;;36.80;45.60;;;;;;6028946;23;20023;-81
2023/06/20 09:25:56;;;;;;;4.45;3.00;;;36.80;46.90;;;;;;6032840;23;20672;-82
2023/06/20 09:28:22;;;;;;;3.65;3.35;;;37.30;45.40;;;;;;6008978;23;20019;-81
2023/06/20 09:30:49;;;;;;;3.22;2.92;;;37.50;45.80;;;;;;6054832;23;20373;-81
2023/06/20 09:33:15;;;;;;;4.10;3.53;;;37.70;45.30;;;;;;6054481;23;20144;-81
2023/06/20 09:35:41;;;;;;;3.67;3.38;;;37.90;45.60;;;;;;6055688;23;20558;-82
2023/06/20 09:38:07;;;;;;;3.22;2.90;;;38.30;44.40;;;;;;6009241;23;20018;-82
2023/06/20 09:40:42;;;;;;;3.25;2.95;;;38.20;44.00;;;;;;6057663;23;20019;-81
2023/06/20 09:43:08;;;;;;;3.70;3.40;;;38.30;44.70;;;;;;6033823;23;20512;-82
2023/06/20 09:45:33;;;;;;;2.95;2.75;;;38.60;44.00;;;;;;6034586;23;20090;-81
2023/06/20 09:48:02;;;;;;;3.72;3.35;;;38.70;44.20;;;;;;6058183;23;20011;-80
2023/06/20 09:50:27;;;;;;;3.30;3.00;;;38.80;43.80;;;;;;6057865;23;20018;-81
2023/06/20 09:53:22;;;;;;;3.13;2.90;;;38.50;44.80;;;;;;6033783;23;20018;-80
2023/06/20 09:55:47;;;;;;;3.38;3.08;;;39.10;43.80;;;;;;6054935;23;20011;-82
2023/06/20 09:58:13;;;;;;;3.28;2.80;;;39.30;42.80;;;;;;6057814;23;20074;-82
2023/06/20 10:00:38;;;;;;;5.43;3.25;;;38.70;42.90;;;;;;6034356;23;20011;-82
2023/06/20 10:03:06;;;;;;;3.28;3.08;;;38.90;42.80;;;;;;6059151;23;20136;-80
2023/06/20 10:05:32;;;;;;;2.70;2.50;;;39.00;43.10;;;;;;6009803;23;20092;-81
2023/06/20 10:07:58;;;;;;;3.30;3.10;;;39.30;43.80;;;;;;6058176;23;20027;-81
2023/06/20 10:10:24;;;;;;;4.32;2.78;;;39.80;43.00;;;;;;6033170;23;20406;-81
2023/06/20 10:12:50;;;;;;;3.60;3.30;;;39.80;42.80;;;;;;6034374;23;20304;-80
2023/06/20 10:15:15;;;;;;;5.88;3.58;;;39.80;41.70;;;;;;6057717;23;20018;-80
2023/06/20 10:17:48;;;;;;;3.60;3.30;;;39.90;42.90;;;;;;6032546;23;20058;-80
2023/06/20 10:20:26;;;;;;;3.40;3.10;;;39.90;42.70;;;;;;6032598;23;20014;-81
2023/06/20 10:22:57;;;;;;;3.70;3.20;;;40.20;43.00;;;;;;6032849;23;20494;-81
2023/06/20 10:25:25;;;;;;;7.13;4.00;;;40.70;42.30;;;;;;6033428;23;20027;-80
2023/06/20 10:28:04;;;;;;;3.50;3.20;;;40.90;41.10;;;;;;6033696;23;20014;-80
2023/06/20 10:30:53;;;;;;;3.25;2.95;;;40.40;42.10;;;;;;6056953;23;20014;-79
2023/06/20 10:33:31;;;;;;;3.47;3.17;;;40.60;41.70;;;;;;6055878;23;20007;-79
2023/06/20 10:36:11;;;;;;;4.22;2.90;;;40.40;41.80;;;;;;6033086;23;20015;-80
2023/06/20 10:38:38;;;;;;;2.70;2.50;;;40.30;41.70;;;;;;6032120;23;20018;-81
2023/06/20 10:41:14;;;;;;;2.63;2.42;;;40.50;41.50;;;;;;6033707;23;20348;-81
2023/06/20 10:43:49;;;;;;;2.38;2.20;;;40.20;40.80;;;;;;6010468;23;20673;-81
2023/06/20 10:46:15;;;;;;;3.75;2.55;;;40.50;41.20;;;;;;6031593;23;20082;-81
2023/06/20 10:48:41;;;;;;;3.55;2.50;;;40.90;40.10;;;;;;6047371;23;20014;-80
2023/06/20 10:51:09;;;;;;;2.90;2.47;;;41.00;40.20;;;;;;5990570;23;20113;-81
2023/06/20 10:53:35;;;;;;;3.97;2.67;;;40.80;40.80;;;;;;6031718;23;20019;-80
2023/06/20 10:56:01;;;;;;;2.47;2.28;;;40.90;40.10;;;;;;6052545;23;20094;-81
2023/06/20 10:58:26;;;;;;;2.92;2.67;;;41.10;39.10;;;;;;6048038;23;20014;-81
2023/06/20 11:00:53;;;;;;;3.10;2.80;;;41.20;40.30;;;;;;6006823;23;20041;-81
2023/06/20 11:03:20;;;;;;;3.90;3.05;;;41.30;39.60;;;;;;6055901;23;20021;-81
2023/06/20 11:05:53;;;;;;;2.50;2.40;;;41.50;39.20;;;;;;6053343;23;20034;-79
2023/06/20 11:08:25;;;;;;;3.13;2.90;;;41.40;39.90;;;;;;6031671;23;20018;-81
2023/06/20 11:10:51;;;;;;;2.75;2.55;;;41.60;40.10;;;;;;6029372;23;20039;-81
2023/06/20 11:13:17;;;;;;;2.92;2.72;;;41.40;39.40;;;;;;6054924;23;20529;-80
2023/06/20 11:15:42;;;;;;;3.00;2.80;;;42.00;39.00;;;;;;6030042;23;20022;-79
2023/06/20 11:18:09;;;;;;;2.45;2.22;;;41.80;39.20;;;;;;6054555;23;20469;-80
2023/06/20 11:20:39;;;;;;;3.05;2.85;;;41.90;39.30;;;;;;6032439;23;20019;-80
2023/06/20 11:23:12;;;;;;;3.13;2.70;;;41.90;39.00;;;;;;6053132;23;20003;-80
2023/06/20 11:25:39;;;;;;;3.95;3.08;;;41.90;39.30;;;;;;6055597;23;20030;-79
2023/06/20 11:28:09;;;;;;;2.80;2.60;;;42.10;39.30;;;;;;6006764;23;20007;-80
2023/06/20 11:30:36;;;;;;;2.85;2.60;;;42.30;38.40;;;;;;6056513;23;20092;-80
2023/06/20 11:33:05;;;;;;;2.90;2.70;;;42.20;38.60;;;;;;6023042;23;20093;-79
2023/06/20 11:35:44;;;;;;;2.65;2.45;;;42.10;38.20;;;;;;6030540;23;20015;-80
2023/06/20 11:38:11;;;;;;;4.80;3.40;;;42.10;38.20;;;;;;6054811;23;20497;-80
2023/06/20 11:40:38;;;;;;;2.88;2.65;;;42.30;38.40;;;;;;6053630;23;20027;-79
2023/06/20 11:43:04;;;;;;;3.03;2.83;;;42.60;37.40;;;;;;6054576;23;20015;-79
2023/06/20 11:45:29;;;;;;;3.17;2.88;;;42.70;37.70;;;;;;6054720;23;20286;-79
2023/06/20 11:48:11;;;;;;;3.97;2.90;;;42.70;38.00;;;;;;6055444;23;20106;-79
2023/06/20 11:50:37;;;;;;;4.03;2.92;;;42.50;37.90;;;;;;6032585;23;20021;-79
2023/06/20 11:53:06;;;;;;;3.72;2.65;;;42.60;37.20;;;;;;6002208;23;20323;-80
2023/06/20 11:55:54;;;;;;;2.63;2.42;;;42.30;37.60;;;;;;6046474;23;20015;-80
2023/06/20 11:58:20;;;;;;;3.60;3.35;;;42.30;37.70;;;;;;6032313;23;20014;-80
2023/06/20 12:00:47;;;;;;;3.30;3.00;;;42.30;37.20;;;;;;6057311;23;20007;-79
2023/06/20 12:03:17;;;;;;;4.78;3.13;;;42.50;37.50;;;;;;6056997;23;20010;-80
2023/06/20 12:05:51;;;;;;;4.95;2.60;;;42.70;37.10;;;;;;6057305;23;20066;-81
2023/06/20 12:08:17;;;;;;;6.00;3.30;;;42.70;37.30;;;;;;6007931;23;20083;-81
2023/06/20 12:10:58;;;;;;;2.88;2.67;;;42.60;37.20;;;;;;6033307;23;20015;-80
2023/06/20 12:13:23;;;;;;;3.15;2.90;;;42.90;37.00;;;;;;6024830;23;20073;-80
2023/06/20 12:15:49;;;;;;;3.15;2.85;;;43.00;37.10;;;;;;5997482;23;20006;-81
2023/06/20 12:18:14;;;;;;;3.80;2.63;;;43.00;37.50;;;;;;6053286;23;20373;-81
2023/06/20 12:20:40;;;;;;;5.68;2.67;;;42.80;37.60;;;;;;6056679;23;20019;-80
2023/06/20 12:23:06;;;;;;;3.08;2.88;;;42.60;37.30;;;;;;6055830;23;20011;-80
2023/06/20 12:25:32;;;;;;;3.00;2.80;;;42.60;37.50;;;;;;6057125;23;20013;-80
2023/06/20 12:27:59;;;;;;;3.60;2.95;;;42.40;37.80;;;;;;6056371;23;20501;-80
2023/06/20 12:30:25;;;;;;;3.42;3.13;;;42.50;37.40;;;;;;6056466;23;20093;-79
2023/06/20 12:32:51;;;;;;;8.43;3.10;;;42.50;37.00;;;;;;6057142;23;20441;-79
2023/06/20 12:35:17;;;;;;;2.97;2.78;;;42.50;37.30;;;;;;6053432;23;20033;-79
2023/06/20 12:37:42;;;;;;;4.18;3.38;;;42.50;37.20;;;;;;6054286;23;20015;-79
2023/06/20 12:40:13;;;;;;;3.25;2.95;;;42.60;37.60;;;;;;6047578;23;20125;-79
2023/06/20 12:42:39;;;;;;;2.55;2.35;;;42.70;38.40;;;;;;6034124;23;20021;-79
2023/06/20 12:45:05;;;;;;;3.10;2.72;;;42.60;37.10;;;;;;6033234;23;20070;-78
2023/06/20 12:47:31;;;;;;;3.33;3.03;;;42.70;37.80;;;;;;6046699;23;20688;-78